Milan, MI (48160)

7:59 PM EST on December 05, 2016 (GMT -0500)
Jewell Rd | | Change Station

Elev 669 ft 42.13 °N, 83.74 °W | Updated 41 seconds ago

Clear
Clear
29.1 °F
Feels Like 29 °F
N
0.0
Wind Variable Wind from ENE
Gusts 0.0 mph

Today
High -- | Low -- °F
--% Chance of Precip.
Yesterday
High -- | Low -- °F
Precip. -- in
Pressure 30.09 in
Visibility 8.0 miles
Clouds Clear
Windchill 29 °F
Dew Point 28 °F
Humidity 96%
Rainfall 0.18 in
Snow Depth Not available.
7:47 AM 5:03 PM
Waxing Crescent, 36% visible
METAR KARB 060053Z 13003KT 8SM CLR M04/M05 A3006 RMK AO2 SLP188 T10441050
Pressure 30.09 in
Visibility 8.0 miles
Clouds Clear
Windchill 29 °F
Dew Point 28 °F
Humidity 96%
Rainfall 0.18 in
Snow Depth Not available.
7:47 AM 5:03 PM
Waxing Crescent, 36% visible
METAR KARB 060053Z 13003KT 8SM CLR M04/M05 A3006 RMK AO2 SLP188 T10441050

10-Day Weather Forecast

Almanac

Astronomy

Dec. 05, 2016 Rise Set
Actual Time
Civil Twilight
Nautical Twilight
Astronomical Twilight
Moon
Length of Visible Light
Length of Day
Tomorrow will be .
, % of the Moon is Illuminated

Today's Extremes

State Highs State Lows

Community

WunderPhotos

Upload Photos

1,955,886 photos uploaded!

WunderBlog® & News

Nearby

Air Quality

  Air Quality AQ Index Pollutant
Not available.

Snow Depth

Station Depth Elevation

Earthquake Activity

City Distance Mag. Time & Date
Minimum magnitude displayed is 2.5.

Coastal Water Temperatures

Place Temperature

Stations

Nearby Weather Stations

Station Location Temp. Windchill Dew Point Humidity Wind Precip. Elev Updated Type
                   

Watches & Warnings

There are currently no watches in effect.